Time;durP1;ratioP1;P1;durP2;ratioP2;P2;SDS_P1;SDS_P2;PMS_P1;PMS_P2;Temp;Humidity;BMP_temperature;BMP_pressure;BME280_temperature;BME280_humidity;BME280_pressure;Samples;Min_cycle;Max_cycle;Signal;HPM_P1;HPM_P2
2022/01/15 00:01:34;;;;;;;28.00;18.67;;;5.30;99.90;;;;;;2625584;47;20380;-82
2022/01/15 00:04:01;;;;;;;35.87;18.10;;;5.10;99.90;;;;;;2625932;39;20811;-80
2022/01/15 00:06:26;;;;;;;35.47;20.37;;;5.10;99.90;;;;;;2625430;47;20421;-81
2022/01/15 00:08:53;;;;;;;33.37;17.87;;;5.20;99.90;;;;;;2625115;47;20384;-82
2022/01/15 00:11:19;;;;;;;31.37;17.90;;;5.30;99.90;;;;;;2625596;54;20143;-81
2022/01/15 00:14:20;;;;;;;31.77;19.13;;;5.50;99.90;;;;;;2625778;54;20372;-81
2022/01/15 00:16:55;;;;;;;30.13;17.20;;;5.70;99.90;;;;;;2625924;54;21012;-80
2022/01/15 00:19:42;;;;;;;31.23;17.67;;;5.60;99.90;;;;;;2625846;47;20391;-82
2022/01/15 00:22:14;;;;;;;30.50;16.23;;;5.90;99.90;;;;;;2626288;54;20419;-82
2022/01/15 00:24:43;;;;;;;30.40;18.00;;;5.60;99.90;;;;;;2625652;54;20913;-82
2022/01/15 00:27:37;;;;;;;36.93;17.90;;;5.60;99.90;;;;;;2625666;54;20383;-81
2022/01/15 00:30:06;;;;;;;29.07;18.27;;;5.50;99.90;;;;;;2625945;54;20380;-83
2022/01/15 00:32:34;;;;;;;34.83;20.03;;;5.50;99.90;;;;;;2626093;47;20456;-82
2022/01/15 00:35:00;;;;;;;37.90;19.70;;;5.50;99.90;;;;;;2626128;47;20423;-82
2022/01/15 00:37:31;;;;;;;32.87;19.70;;;5.70;99.90;;;;;;2626032;47;20384;-83
2022/01/15 00:40:00;;;;;;;33.17;18.57;;;5.60;99.90;;;;;;2626061;47;20380;-83
2022/01/15 00:42:30;;;;;;;41.67;21.73;;;5.60;99.90;;;;;;2626060;54;20372;-82
2022/01/15 00:45:23;;;;;;;30.07;17.20;;;5.70;99.90;;;;;;2626044;46;20379;-82
2022/01/15 00:47:50;;;;;;;33.13;19.20;;;5.70;99.90;;;;;;2625623;46;20414;-83
2022/01/15 00:50:16;;;;;;;29.90;18.90;;;5.60;99.90;;;;;;2625934;47;20444;-81
2022/01/15 00:53:14;;;;;;;37.03;18.57;;;5.60;99.90;;;;;;2626340;47;20421;-81
2022/01/15 00:55:40;;;;;;;26.10;17.03;;;5.40;99.90;;;;;;2626023;46;20404;-82
2022/01/15 00:58:32;;;;;;;29.10;17.77;;;5.20;99.90;;;;;;2626142;54;20446;-82
2022/01/15 01:01:25;;;;;;;38.43;21.80;;;5.30;99.90;;;;;;2625961;54;20900;-82
2022/01/15 01:03:51;;;;;;;35.03;18.90;;;5.60;99.90;;;;;;2626329;39;20792;-82
2022/01/15 01:06:17;;;;;;;30.57;16.97;;;5.60;99.90;;;;;;2625122;54;20430;-82
2022/01/15 01:08:43;;;;;;;35.63;19.57;;;5.50;99.90;;;;;;2625278;47;20507;-83
2022/01/15 01:11:48;;;;;;;30.60;17.37;;;5.40;99.90;;;;;;2624971;47;20396;-81
2022/01/15 01:20:11;;;;;;;30.63;16.60;;;5.30;99.90;;;;;;2625388;46;20395;-83
2022/01/15 01:23:04;;;;;;;30.90;16.37;;;5.10;99.90;;;;;;2625310;54;20428;-81
2022/01/15 01:25:43;;;;;;;33.00;20.00;;;5.40;99.90;;;;;;2625377;47;20371;-81
2022/01/15 01:28:14;;;;;;;31.47;18.00;;;5.10;99.90;;;;;;2625296;46;20487;-82
2022/01/15 01:30:50;;;;;;;25.40;15.87;;;5.20;99.90;;;;;;2624499;46;20389;-82
2022/01/15 01:36:00;;;;;;;29.10;17.43;;;5.20;99.90;;;;;;2624789;47;20435;-82
2022/01/15 01:38:31;;;;;;;32.70;17.43;;;4.90;99.90;;;;;;2625067;54;20367;-82
2022/01/15 01:41:00;;;;;;;26.77;18.20;;;5.10;99.90;;;;;;2625006;47;20451;-81
2022/01/15 01:43:50;;;;;;;33.30;18.73;;;5.40;99.90;;;;;;2625007;54;20380;-82
2022/01/15 01:48:55;;;;;;;28.63;18.60;;;5.40;99.90;;;;;;2624179;47;20371;-81
2022/01/15 01:51:36;;;;;;;32.47;17.63;;;5.50;99.90;;;;;;2624769;47;20384;-81
2022/01/15 01:54:06;;;;;;;28.73;15.33;;;5.20;99.90;;;;;;2625077;47;20382;-81
2022/01/15 01:56:34;;;;;;;26.80;16.47;;;5.10;99.90;;;;;;2625236;54;20406;-81
2022/01/15 01:59:01;;;;;;;29.60;16.80;;;5.00;99.90;;;;;;2625178;47;20416;-83
2022/01/15 02:01:53;;;;;;;26.63;16.77;;;5.20;99.90;;;;;;2625172;47;20400;-82
2022/01/15 02:04:19;;;;;;;24.93;17.30;;;5.40;99.90;;;;;;2625192;46;21093;-81
2022/01/15 02:06:46;;;;;;;34.03;18.00;;;4.90;99.90;;;;;;2625327;47;20371;-83
2022/01/15 02:09:13;;;;;;;32.43;19.27;;;5.00;99.90;;;;;;2625754;47;20367;-81
2022/01/15 02:11:40;;;;;;;29.57;16.40;;;5.00;99.90;;;;;;2627902;39;20753;-81
2022/01/15 02:14:05;;;;;;;32.97;17.60;;;5.10;99.90;;;;;;2625267;47;20380;-81
2022/01/15 02:16:32;;;;;;;26.40;16.07;;;5.40;99.90;;;;;;2624883;47;20415;-81
2022/01/15 02:19:28;;;;;;;26.90;18.27;;;5.40;99.90;;;;;;2625292;54;20622;-82
2022/01/15 02:25:05;;;;;;;33.47;19.40;;;5.10;99.90;;;;;;2624910;47;20391;-81
2022/01/15 02:27:33;;;;;;;29.47;17.77;;;5.20;99.90;;;;;;2624481;47;20371;-82
2022/01/15 02:30:03;;;;;;;30.90;18.70;;;5.30;99.90;;;;;;2625174;47;20995;-83
2022/01/15 02:32:32;;;;;;;30.97;17.50;;;5.10;99.90;;;;;;2624706;47;20389;-82
2022/01/15 02:35:03;;;;;;;27.73;18.43;;;5.40;99.90;;;;;;2624477;47;20420;-82
2022/01/15 02:37:30;;;;;;;27.73;16.47;;;5.60;99.90;;;;;;2624652;54;20527;-82
2022/01/15 02:39:57;;;;;;;32.70;18.47;;;5.50;99.90;;;;;;2624849;54;20496;-83
2022/01/15 02:42:26;;;;;;;31.53;17.20;;;5.90;99.90;;;;;;2624964;46;20427;-81
2022/01/15 02:45:22;;;;;;;30.03;18.03;;;5.40;99.90;;;;;;2624781;47;20399;-82
2022/01/15 02:48:00;;;;;;;28.53;18.37;;;5.40;99.90;;;;;;2624480;47;20382;-82
2022/01/15 02:50:26;;;;;;;32.63;19.30;;;5.30;99.90;;;;;;2624483;54;20384;-82
2022/01/15 02:52:53;;;;;;;28.40;17.30;;;5.40;99.90;;;;;;2624750;54;20379;-82
2022/01/15 02:55:19;;;;;;;26.83;18.90;;;5.40;99.90;;;;;;2624301;47;20367;-81
2022/01/15 02:57:45;;;;;;;31.40;17.67;;;5.70;99.90;;;;;;2624036;47;20532;-81
2022/01/15 03:00:12;;;;;;;32.13;19.30;;;5.30;99.90;;;;;;2624882;54;20363;-83
2022/01/15 03:02:38;;;;;;;30.67;18.00;;;5.60;99.90;;;;;;2624336;47;20351;-81
2022/01/15 03:05:04;;;;;;;29.90;18.33;;;6.00;99.90;;;;;;2624235;47;21092;-81
2022/01/15 03:07:30;;;;;;;24.90;15.93;;;6.00;99.90;;;;;;2624746;47;20384;-81
2022/01/15 03:09:56;;;;;;;31.83;17.80;;;5.80;99.90;;;;;;2623979;54;20360;-81
2022/01/15 03:12:22;;;;;;;26.10;16.77;;;5.50;99.90;;;;;;2624368;54;20392;-81
2022/01/15 03:14:54;;;;;;;33.60;17.80;;;5.30;99.90;;;;;;2624598;47;20680;-81
2022/01/15 03:17:20;;;;;;;27.13;17.00;;;5.40;99.90;;;;;;2624389;47;20367;-82
2022/01/15 03:20:14;;;;;;;26.40;16.03;;;5.50;99.90;;;;;;2624753;47;20378;-83
2022/01/15 03:22:41;;;;;;;27.00;16.13;;;5.40;99.90;;;;;;2629526;31;20758;-82
2022/01/15 03:25:08;;;;;;;26.67;16.27;;;5.80;99.90;;;;;;2624637;47;20375;-82
2022/01/15 03:27:35;;;;;;;24.37;14.67;;;6.10;99.90;;;;;;2624420;47;20403;-81
2022/01/15 03:30:01;;;;;;;26.83;16.17;;;6.00;99.90;;;;;;2624401;47;20367;-81
2022/01/15 03:32:28;;;;;;;24.10;14.27;;;5.60;99.90;;;;;;2624832;47;20387;-82
2022/01/15 03:34:54;;;;;;;24.00;15.03;;;5.30;99.90;;;;;;2624590;47;20431;-82
2022/01/15 03:37:20;;;;;;;20.20;13.43;;;5.20;99.90;;;;;;2624841;39;20873;-81
2022/01/15 03:39:46;;;;;;;20.33;11.80;;;5.30;99.90;;;;;;2624897;47;20131;-82
2022/01/15 03:42:13;;;;;;;20.33;14.00;;;5.30;99.90;;;;;;2626203;46;20417;-80
2022/01/15 03:44:45;;;;;;;24.40;14.10;;;5.60;99.90;;;;;;2625131;47;20380;-82
2022/01/15 03:47:12;;;;;;;23.50;12.37;;;5.50;99.90;;;;;;2626495;47;20391;-81
2022/01/15 03:49:39;;;;;;;20.83;12.77;;;5.20;99.90;;;;;;2626554;47;20366;-81
2022/01/15 03:52:06;;;;;;;23.23;14.37;;;5.10;99.90;;;;;;2626805;46;20363;-82
2022/01/15 03:54:32;;;;;;;21.93;13.27;;;4.80;99.90;;;;;;2627276;47;20392;-80
2022/01/15 03:56:58;;;;;;;21.40;13.90;;;5.20;99.90;;;;;;2626983;47;20383;-81
2022/01/15 03:59:24;;;;;;;18.83;12.40;;;5.20;99.90;;;;;;2627045;47;20367;-82
2022/01/15 04:01:51;;;;;;;17.10;12.27;;;5.20;99.90;;;;;;2626326;46;20494;-81
2022/01/15 04:04:19;;;;;;;18.57;11.20;;;5.10;99.90;;;;;;2626584;54;20384;-81
2022/01/15 04:06:45;;;;;;;21.33;13.23;;;4.90;99.90;;;;;;2626728;47;20371;-82
2022/01/15 04:09:13;;;;;;;14.50;10.80;;;5.00;99.90;;;;;;2626932;47;20384;-82
2022/01/15 04:11:39;;;;;;;19.83;12.43;;;4.80;99.90;;;;;;2626752;47;20440;-81
2022/01/15 04:14:06;;;;;;;17.50;11.07;;;5.00;99.90;;;;;;2626460;47;21031;-81
2022/01/15 04:16:32;;;;;;;18.77;11.40;;;4.90;99.90;;;;;;2626758;47;20392;-81
2022/01/15 04:19:00;;;;;;;14.57;11.77;;;4.80;99.90;;;;;;2626557;47;20889;-81
2022/01/15 04:21:27;;;;;;;15.90;9.23;;;5.10;99.90;;;;;;2625845;47;20375;-81
2022/01/15 04:24:20;;;;;;;16.53;10.80;;;5.00;99.90;;;;;;2626978;46;20420;-81
2022/01/15 04:26:47;;;;;;;19.63;10.70;;;4.80;99.90;;;;;;2626839;54;21259;-81
2022/01/15 04:29:15;;;;;;;11.77;8.93;;;5.00;99.90;;;;;;2626589;46;20383;-80
2022/01/15 04:31:47;;;;;;;11.03;9.37;;;4.80;99.90;;;;;;2627539;46;20356;-82
2022/01/15 04:34:18;;;;;;;16.63;10.40;;;4.60;99.90;;;;;;2626737;54;20384;-81
2022/01/15 04:36:44;;;;;;;14.90;11.20;;;4.50;99.90;;;;;;2626531;47;20379;-80
2022/01/15 04:39:11;;;;;;;16.63;9.80;;;4.80;99.90;;;;;;2626020;47;20491;-82
2022/01/15 04:42:04;;;;;;;13.50;9.10;;;4.70;99.90;;;;;;2626279;47;20925;-83
2022/01/15 04:44:56;;;;;;;12.50;8.90;;;4.70;99.90;;;;;;2626444;39;20972;-82
2022/01/15 04:47:23;;;;;;;14.20;9.20;;;4.60;99.90;;;;;;2626540;46;21053;-81
2022/01/15 04:49:51;;;;;;;15.63;9.17;;;4.60;99.90;;;;;;2627124;47;20355;-83
2022/01/15 04:52:17;;;;;;;14.33;8.80;;;4.70;99.90;;;;;;2627590;54;20383;-83
2022/01/15 04:54:43;;;;;;;12.93;10.23;;;4.50;99.90;;;;;;2626197;46;20359;-82
2022/01/15 04:57:09;;;;;;;10.80;8.23;;;4.60;99.90;;;;;;2624978;47;20407;-82
2022/01/15 04:59:34;;;;;;;12.30;9.37;;;4.80;99.90;;;;;;2626094;54;20365;-82
2022/01/15 05:02:26;;;;;;;11.60;7.83;;;4.60;99.90;;;;;;2626616;39;20556;-81
2022/01/15 05:04:52;;;;;;;11.30;7.73;;;4.50;99.90;;;;;;2626280;46;20581;-83
2022/01/15 05:07:22;;;;;;;14.57;9.10;;;4.40;99.90;;;;;;2626468;54;20535;-81
2022/01/15 05:09:48;;;;;;;12.83;9.63;;;4.30;99.90;;;;;;2627075;46;20169;-82
2022/01/15 05:12:31;;;;;;;13.00;9.67;;;4.10;99.90;;;;;;2626303;47;20376;-81
2022/01/15 05:14:57;;;;;;;12.40;8.40;;;4.20;99.90;;;;;;2626052;46;20396;-82
2022/01/15 05:17:23;;;;;;;12.23;10.33;;;4.20;99.90;;;;;;2625583;54;20487;-83
2022/01/15 05:19:50;;;;;;;16.60;10.90;;;4.20;99.90;;;;;;2626346;47;20383;-82
2022/01/15 05:22:16;;;;;;;12.70;9.60;;;4.10;99.90;;;;;;2626184;47;20391;-81
2022/01/15 05:24:42;;;;;;;17.00;10.37;;;4.10;99.90;;;;;;2626523;47;20370;-83
2022/01/15 05:27:08;;;;;;;12.07;9.90;;;4.10;99.90;;;;;;2626460;39;20962;-82
2022/01/15 05:29:35;;;;;;;14.40;10.70;;;4.30;99.90;;;;;;2626181;47;20235;-84
2022/01/15 05:32:03;;;;;;;18.97;12.07;;;4.10;99.90;;;;;;2626261;47;20369;-82
2022/01/15 05:34:29;;;;;;;18.67;13.40;;;4.50;99.90;;;;;;2625799;46;20469;-84
2022/01/15 05:36:55;;;;;;;15.77;12.30;;;4.50;99.90;;;;;;2625892;47;20404;-83
2022/01/15 05:39:47;;;;;;;20.87;12.33;;;4.50;99.90;;;;;;2626570;47;20149;-81
2022/01/15 05:42:13;;;;;;;16.73;11.60;;;4.00;99.90;;;;;;2626171;47;20335;-82
2022/01/15 05:44:39;;;;;;;17.13;11.97;;;4.30;99.90;;;;;;2626094;54;21051;-82
2022/01/15 05:47:05;;;;;;;17.57;13.30;;;4.20;99.90;;;;;;2626324;47;20139;-82
2022/01/15 05:49:31;;;;;;;18.30;11.60;;;4.20;99.90;;;;;;2626058;46;20173;-83
2022/01/15 05:51:56;;;;;;;15.00;11.70;;;4.00;99.90;;;;;;2626596;47;20360;-82
2022/01/15 05:54:22;;;;;;;17.93;11.57;;;4.30;99.90;;;;;;2625647;47;20384;-85
2022/01/15 05:56:50;;;;;;;15.53;10.07;;;4.20;99.90;;;;;;2625697;46;20173;-82
2022/01/15 05:59:18;;;;;;;15.63;10.60;;;4.00;99.90;;;;;;2625661;47;20455;-81
2022/01/15 06:01:44;;;;;;;12.20;9.70;;;3.90;99.90;;;;;;2626835;39;20813;-82
2022/01/15 06:04:10;;;;;;;14.07;9.83;;;3.70;99.90;;;;;;2626777;54;20384;-82
2022/01/15 06:06:36;;;;;;;15.53;9.47;;;3.30;99.90;;;;;;2626164;47;20379;-82
2022/01/15 06:09:03;;;;;;;14.20;10.40;;;3.30;99.90;;;;;;2626515;46;20147;-82
2022/01/15 06:11:29;;;;;;;14.17;8.87;;;3.40;99.90;;;;;;2626482;47;20383;-82
2022/01/15 06:13:56;;;;;;;14.50;9.27;;;3.20;99.90;;;;;;2626302;46;20359;-81
2022/01/15 06:16:22;;;;;;;22.47;10.63;;;3.40;99.90;;;;;;2626423;47;20437;-83
2022/01/15 06:18:48;;;;;;;16.03;9.33;;;3.40;99.90;;;;;;2626431;46;20355;-82
2022/01/15 06:21:14;;;;;;;14.47;9.30;;;3.40;99.90;;;;;;2627573;39;20779;-83
2022/01/15 06:23:43;;;;;;;13.10;9.13;;;3.40;99.90;;;;;;2627261;54;20448;-84
2022/01/15 06:26:11;;;;;;;14.73;9.63;;;3.50;99.90;;;;;;2628980;47;20379;-83
2022/01/15 06:28:39;;;;;;;14.37;8.97;;;3.50;99.90;;;;;;2628010;47;20429;-82
2022/01/15 06:31:32;;;;;;;18.17;10.87;;;3.50;99.90;;;;;;2628454;47;20379;-82
2022/01/15 06:34:25;;;;;;;13.17;9.57;;;3.40;99.90;;;;;;2627353;54;20398;-84
2022/01/15 06:36:50;;;;;;;17.83;11.33;;;3.30;99.90;;;;;;2627328;47;20370;-80
2022/01/15 06:39:16;;;;;;;15.17;9.30;;;3.20;99.90;;;;;;2627049;54;20375;-80
2022/01/15 06:41:42;;;;;;;16.70;10.77;;;3.10;99.90;;;;;;2626766;47;20143;-83
2022/01/15 06:44:08;;;;;;;23.27;11.87;;;3.00;99.90;;;;;;2627956;39;20870;-82
2022/01/15 06:47:05;;;;;;;19.60;11.20;;;2.90;99.90;;;;;;2627130;47;20383;-82
2022/01/15 06:49:32;;;;;;;15.13;10.17;;;2.90;99.90;;;;;;2631671;39;20889;-83
2022/01/15 06:52:25;;;;;;;20.20;10.87;;;2.90;99.90;;;;;;2626388;47;20410;-83
2022/01/15 06:54:52;;;;;;;18.90;11.30;;;3.00;99.90;;;;;;2626824;47;20367;-80
2022/01/15 06:57:20;;;;;;;15.33;10.00;;;3.30;99.90;;;;;;2626844;46;20392;-82
2022/01/15 06:59:47;;;;;;;21.43;11.87;;;3.30;99.90;;;;;;2626848;47;20384;-82
2022/01/15 07:02:14;;;;;;;15.27;7.53;;;3.20;99.90;;;;;;2630386;39;20933;-81
2022/01/15 07:05:09;;;;;;;15.57;9.17;;;3.00;99.90;;;;;;2626826;47;20400;-82
2022/01/15 07:08:18;;;;;;;16.37;10.57;;;3.10;99.90;;;;;;2631414;46;20419;-82
2022/01/15 07:11:16;;;;;;;13.40;9.10;;;3.20;99.90;;;;;;2626705;47;20447;-82
2022/01/15 07:13:42;;;;;;;17.27;10.10;;;3.10;99.90;;;;;;2626393;47;20387;-83
2022/01/15 07:16:34;;;;;;;18.87;10.50;;;3.00;99.90;;;;;;2627409;47;20945;-84
2022/01/15 07:19:02;;;;;;;20.87;11.17;;;3.00;99.90;;;;;;2626185;47;20362;-82
2022/01/15 07:21:35;;;;;;;15.97;9.77;;;3.00;99.90;;;;;;2631692;39;20985;-83
2022/01/15 07:24:07;;;;;;;19.73;10.87;;;3.30;99.90;;;;;;2628278;54;20359;-82
2022/01/15 07:26:37;;;;;;;20.67;10.27;;;3.20;99.90;;;;;;2628724;54;20399;-83
2022/01/15 07:29:05;;;;;;;17.03;11.20;;;3.20;99.90;;;;;;2628167;47;20425;-81
2022/01/15 07:31:30;;;;;;;25.20;10.97;;;3.40;99.90;;;;;;2629544;47;20394;-83
2022/01/15 07:34:23;;;;;;;13.63;9.30;;;3.30;99.90;;;;;;2629985;47;21021;-84
2022/01/15 07:36:58;;;;;;;21.30;11.10;;;3.40;99.90;;;;;;2630237;46;20139;-82
2022/01/15 07:39:50;;;;;;;15.67;9.83;;;3.10;99.90;;;;;;2629908;46;20407;-83
2022/01/15 07:42:16;;;;;;;22.00;11.60;;;3.10;99.90;;;;;;2630286;46;20487;-87
2022/01/15 07:44:44;;;;;;;19.20;8.47;;;3.10;99.90;;;;;;2634718;39;21108;-82
2022/01/15 07:47:12;;;;;;;17.50;10.77;;;3.10;99.90;;;;;;2630605;46;20355;-82
2022/01/15 07:49:38;;;;;;;20.20;10.83;;;3.00;99.90;;;;;;2630542;47;20379;-82
2022/01/15 07:52:04;;;;;;;19.73;12.10;;;3.20;99.90;;;;;;2630018;47;20363;-83
2022/01/15 07:54:30;;;;;;;19.53;10.27;;;3.20;99.90;;;;;;2630144;46;20363;-83
2022/01/15 07:57:22;;;;;;;17.13;11.17;;;3.10;99.90;;;;;;2630511;47;20364;-83
2022/01/15 08:00:13;;;;;;;18.40;10.60;;;3.20;99.90;;;;;;2630351;54;20446;-83
2022/01/15 08:03:06;;;;;;;15.83;10.10;;;3.10;99.90;;;;;;2630647;54;20373;-84
2022/01/15 08:05:32;;;;;;;18.60;10.70;;;3.00;99.90;;;;;;2628494;47;20940;-82
2022/01/15 08:08:25;;;;;;;17.60;10.60;;;3.30;99.90;;;;;;2628235;47;20376;-82
2022/01/15 08:10:51;;;;;;;18.63;11.77;;;3.30;99.90;;;;;;2628292;46;20367;-83
2022/01/15 08:13:19;;;;;;;18.30;10.47;;;3.30;99.90;;;;;;2628616;39;20828;-83
2022/01/15 08:16:11;;;;;;;20.30;10.47;;;3.20;99.90;;;;;;2628203;46;20139;-82
2022/01/15 08:18:38;;;;;;;16.70;11.40;;;3.20;99.90;;;;;;2628323;47;20378;-81
2022/01/15 08:21:05;;;;;;;19.30;10.50;;;3.10;99.90;;;;;;2627750;54;20372;-84
2022/01/15 08:23:59;;;;;;;19.60;11.40;;;3.50;99.90;;;;;;2628128;47;20395;-83
2022/01/15 08:26:26;;;;;;;16.10;10.37;;;3.60;99.90;;;;;;2629647;46;20445;-83
2022/01/15 08:28:53;;;;;;;20.50;11.90;;;3.90;99.90;;;;;;2627791;47;20415;-82
2022/01/15 08:31:47;;;;;;;20.97;11.93;;;4.00;99.90;;;;;;2627614;46;20545;-83
2022/01/15 08:34:14;;;;;;;19.13;10.47;;;3.80;99.90;;;;;;2627425;46;20514;-84
2022/01/15 08:36:40;;;;;;;16.80;11.40;;;3.60;99.90;;;;;;2627226;47;21236;-83
2022/01/15 08:39:32;;;;;;;16.53;10.77;;;3.50;99.90;;;;;;2627305;54;20388;-84
2022/01/15 08:42:00;;;;;;;21.07;11.27;;;3.40;99.90;;;;;;2627679;47;20368;-83
2022/01/15 08:44:54;;;;;;;19.90;11.43;;;3.50;99.90;;;;;;2627555;47;20392;-83
2022/01/15 08:47:48;;;;;;;19.67;10.93;;;3.60;99.90;;;;;;2627714;46;20372;-82
2022/01/15 08:50:15;;;;;;;25.63;11.77;;;3.70;99.90;;;;;;2627717;54;20379;-83
2022/01/15 08:53:30;;;;;;;13.67;10.30;;;3.50;99.90;;;;;;2628519;46;20391;-86
2022/01/15 08:55:57;;;;;;;18.33;11.57;;;3.70;99.90;;;;;;2629572;47;20371;-83
2022/01/15 08:58:25;;;;;;;24.17;12.33;;;3.60;99.90;;;;;;2629254;47;20396;-83
2022/01/15 09:00:55;;;;;;;19.03;12.00;;;3.80;99.90;;;;;;2629339;46;20363;-83
2022/01/15 09:03:24;;;;;;;19.60;12.13;;;3.80;99.90;;;;;;2630025;39;20852;-82
2022/01/15 09:05:52;;;;;;;19.50;10.37;;;3.90;99.90;;;;;;2628852;47;20380;-82
2022/01/15 09:08:46;;;;;;;18.27;11.43;;;3.70;99.90;;;;;;2628814;46;20414;-82
2022/01/15 09:11:14;;;;;;;24.90;13.17;;;4.00;99.90;;;;;;2628845;54;20958;-82
2022/01/15 09:13:41;;;;;;;23.23;12.20;;;3.70;99.90;;;;;;2628960;47;20359;-82
2022/01/15 09:16:07;;;;;;;19.20;12.57;;;3.90;99.90;;;;;;2628901;47;20417;-83
2022/01/15 09:18:34;;;;;;;23.37;13.93;;;3.50;99.90;;;;;;2629397;47;20384;-82
2022/01/15 09:21:02;;;;;;;21.10;12.20;;;3.30;99.90;;;;;;2628999;47;20415;-83
2022/01/15 09:23:28;;;;;;;17.20;11.73;;;3.40;99.90;;;;;;2628818;46;20399;-82
2022/01/15 09:26:46;;;;;;;20.50;12.50;;;3.30;99.90;;;;;;2628954;46;20396;-81
2022/01/15 09:31:59;;;;;;;17.60;11.20;;;3.50;99.90;;;;;;2628226;47;20367;-83
2022/01/15 09:34:26;;;;;;;22.33;11.70;;;3.70;99.90;;;;;;2628370;47;20351;-83
2022/01/15 09:36:52;;;;;;;22.23;12.03;;;3.50;99.90;;;;;;2636157;39;20875;-83
2022/01/15 09:39:20;;;;;;;21.60;12.50;;;3.90;99.90;;;;;;2637076;39;20822;-82
2022/01/15 09:41:48;;;;;;;23.57;13.80;;;3.70;99.90;;;;;;2628625;47;20370;-82
2022/01/15 09:44:16;;;;;;;20.03;12.03;;;3.70;99.90;;;;;;2629181;47;21059;-83
2022/01/15 09:47:09;;;;;;;18.53;12.50;;;4.10;99.90;;;;;;2628989;47;20384;-82
2022/01/15 09:49:37;;;;;;;20.53;12.33;;;4.10;99.90;;;;;;2629393;46;20380;-81
2022/01/15 09:52:03;;;;;;;21.13;13.20;;;3.70;99.90;;;;;;2629529;47;20362;-82
2022/01/15 09:54:55;;;;;;;20.43;12.57;;;3.30;99.90;;;;;;2629835;47;20370;-82
2022/01/15 09:57:21;;;;;;;27.20;14.70;;;3.80;99.90;;;;;;2628799;47;20961;-83
2022/01/15 10:00:18;;;;;;;26.57;14.23;;;3.80;99.90;;;;;;2629285;47;20372;-82
2022/01/15 10:02:51;;;;;;;23.13;13.90;;;4.00;99.90;;;;;;2628614;46;20466;-83
2022/01/15 10:05:20;;;;;;;21.67;14.23;;;4.00;99.90;;;;;;2628850;47;20960;-82
2022/01/15 10:08:10;;;;;;;24.20;14.50;;;3.80;99.90;;;;;;2628946;54;20394;-83
2022/01/15 10:10:39;;;;;;;24.23;15.00;;;3.60;99.90;;;;;;2628915;47;20391;-83
2022/01/15 10:13:20;;;;;;;23.10;14.63;;;3.90;99.90;;;;;;2628823;47;20408;-83
2022/01/15 10:15:50;;;;;;;22.00;14.47;;;3.80;99.90;;;;;;2628860;39;20779;-82
2022/01/15 10:19:08;;;;;;;23.80;14.17;;;3.90;99.90;;;;;;2628286;46;20432;-83
2022/01/15 10:21:35;;;;;;;19.10;14.27;;;3.90;99.90;;;;;;2628466;47;20376;-83
2022/01/15 10:24:01;;;;;;;27.20;15.67;;;4.30;99.90;;;;;;2628521;47;20363;-82
2022/01/15 10:26:31;;;;;;;19.23;12.17;;;4.50;99.90;;;;;;2628371;47;20367;-83
2022/01/15 10:29:23;;;;;;;23.47;12.10;;;4.20;99.90;;;;;;2628064;47;20984;-83
2022/01/15 10:31:50;;;;;;;21.77;13.70;;;4.30;99.90;;;;;;2628035;47;20384;-83
2022/01/15 10:34:45;;;;;;;19.90;12.77;;;4.30;99.90;;;;;;2628817;47;20455;-83
2022/01/15 10:37:20;;;;;;;19.70;13.30;;;4.60;99.90;;;;;;2628510;47;20384;-82
2022/01/15 10:40:07;;;;;;;15.70;11.57;;;4.10;99.90;;;;;;2628984;54;20374;-83
2022/01/15 10:42:36;;;;;;;14.47;11.00;;;4.00;99.90;;;;;;2629124;54;20366;-83
2022/01/15 10:45:34;;;;;;;20.93;11.90;;;3.70;99.90;;;;;;2628953;46;20367;-82
2022/01/15 10:48:03;;;;;;;18.30;12.23;;;3.80;99.90;;;;;;2628397;47;20970;-84
2022/01/15 10:50:36;;;;;;;19.03;12.93;;;4.10;99.90;;;;;;2631324;39;20880;-84
2022/01/15 10:53:09;;;;;;;20.47;13.03;;;4.20;99.90;;;;;;2636675;31;20965;-82
2022/01/15 10:55:38;;;;;;;17.40;11.70;;;4.50;99.90;;;;;;2628643;47;20952;-81
2022/01/15 10:58:11;;;;;;;20.30;12.37;;;4.30;99.90;;;;;;2628586;47;20372;-83
2022/01/15 11:00:41;;;;;;;15.83;12.50;;;4.40;99.90;;;;;;2628607;54;20400;-82
2022/01/15 11:03:10;;;;;;;17.77;11.37;;;4.40;99.90;;;;;;2628356;47;20366;-84
2022/01/15 11:05:37;;;;;;;18.07;11.40;;;4.80;99.90;;;;;;2628710;47;21058;-84
2022/01/15 11:08:39;;;;;;;16.80;12.20;;;4.90;99.90;;;;;;2628417;47;21030;-83
2022/01/15 11:11:12;;;;;;;18.40;10.93;;;5.00;99.90;;;;;;2627956;47;20399;-83
2022/01/15 11:13:43;;;;;;;18.73;11.03;;;4.80;99.90;;;;;;2617520;47;20470;-80
2022/01/15 11:16:14;;;;;;;16.10;11.13;;;4.70;99.90;;;;;;2610579;47;21223;-80
2022/01/15 11:18:54;;;;;;;15.57;10.40;;;4.30;99.90;;;;;;2614312;39;20888;-78
2022/01/15 11:21:26;;;;;;;17.33;10.07;;;4.30;99.90;;;;;;2614342;54;20439;-79
2022/01/15 11:23:56;;;;;;;14.43;10.50;;;4.60;99.90;;;;;;2614820;54;20406;-79
2022/01/15 11:26:28;;;;;;;15.67;9.90;;;4.80;99.90;;;;;;2611997;54;20418;-79
2022/01/15 11:28:57;;;;;;;14.97;10.83;;;4.90;99.90;;;;;;2614384;48;20514;-80
2022/01/15 11:31:32;;;;;;;15.17;11.47;;;4.70;99.90;;;;;;2613864;47;20423;-81
2022/01/15 11:34:02;;;;;;;16.80;11.10;;;4.90;99.90;;;;;;2614576;54;20426;-80
2022/01/15 11:36:36;;;;;;;15.87;11.50;;;4.80;99.90;;;;;;2614509;54;20972;-80
2022/01/15 11:39:07;;;;;;;21.53;13.00;;;4.90;99.90;;;;;;2615292;54;20426;-82
2022/01/15 11:41:37;;;;;;;23.17;13.70;;;4.70;99.90;;;;;;2613996;54;20423;-80
2022/01/15 11:44:06;;;;;;;21.20;15.30;;;4.70;99.90;;;;;;2612869;54;20967;-80
2022/01/15 11:46:54;;;;;;;21.63;12.83;;;4.70;99.90;;;;;;2614605;54;20466;-80
2022/01/15 11:49:41;;;;;;;20.90;13.70;;;4.10;99.90;;;;;;2614093;47;20420;-80
2022/01/15 11:52:09;;;;;;;18.00;12.20;;;4.50;99.90;;;;;;2613981;54;20491;-80
2022/01/15 11:54:40;;;;;;;17.17;12.40;;;4.50;99.90;;;;;;2613386;54;20391;-82
2022/01/15 11:57:24;;;;;;;17.63;11.00;;;4.70;99.90;;;;;;2614501;47;20425;-82
2022/01/15 11:59:58;;;;;;;17.73;11.80;;;4.70;99.90;;;;;;2613438;39;20796;-81
2022/01/15 12:02:32;;;;;;;16.63;12.23;;;4.60;99.90;;;;;;2612449;46;20460;-80
2022/01/15 12:05:19;;;;;;;13.90;10.30;;;4.70;99.90;;;;;;2614804;51;20414;-82
2022/01/15 12:08:08;;;;;;;12.30;9.03;;;4.50;99.90;;;;;;2616772;47;20427;-80
2022/01/15 12:10:49;;;;;;;11.17;8.03;;;4.60;99.90;;;;;;2613369;54;20484;-80
2022/01/15 12:13:40;;;;;;;14.63;10.13;;;4.60;99.90;;;;;;2613752;54;20422;-80
2022/01/15 12:16:24;;;;;;;11.03;8.63;;;4.90;99.90;;;;;;2614121;47;20475;-79
2022/01/15 12:18:51;;;;;;;15.17;10.40;;;4.90;99.90;;;;;;2614846;54;20400;-81
2022/01/15 12:21:46;;;;;;;13.43;8.10;;;4.90;99.90;;;;;;2614957;47;20535;-79
2022/01/15 12:24:39;;;;;;;16.07;10.93;;;4.60;99.90;;;;;;2614081;54;20462;-80
2022/01/15 12:27:07;;;;;;;15.93;11.03;;;4.70;99.90;;;;;;2613331;39;20826;-81
2022/01/15 12:29:35;;;;;;;13.60;10.50;;;4.90;99.90;;;;;;2612490;54;20572;-79
2022/01/15 12:32:00;;;;;;;13.90;11.10;;;5.40;99.90;;;;;;2611132;54;21006;-80
2022/01/15 12:34:27;;;;;;;14.90;10.73;;;5.40;99.90;;;;;;2612046;54;20407;-79
2022/01/15 12:36:54;;;;;;;18.87;11.30;;;5.00;99.90;;;;;;2611331;54;20150;-79
2022/01/15 12:39:37;;;;;;;16.80;10.60;;;5.20;99.90;;;;;;2611326;47;20941;-79
2022/01/15 12:42:05;;;;;;;14.70;12.20;;;5.10;99.90;;;;;;2613908;46;20465;-80
2022/01/15 12:44:40;;;;;;;14.60;11.30;;;5.50;99.90;;;;;;2612098;54;20412;-81
2022/01/15 12:47:06;;;;;;;20.60;11.90;;;6.00;99.90;;;;;;2611446;54;21729;-80
2022/01/15 12:49:43;;;;;;;16.47;11.90;;;6.00;99.90;;;;;;2613391;39;20799;-79
2022/01/15 12:52:16;;;;;;;12.93;10.60;;;6.20;99.90;;;;;;2611097;54;20178;-79
2022/01/15 12:54:45;;;;;;;14.90;9.83;;;5.10;99.90;;;;;;2611509;54;20435;-81
2022/01/15 12:57:11;;;;;;;10.20;8.80;;;5.50;99.90;;;;;;2611709;39;20794;-80
2022/01/15 12:59:38;;;;;;;13.47;10.77;;;5.10;99.90;;;;;;2613399;54;20436;-80
2022/01/15 13:02:05;;;;;;;14.90;10.47;;;5.30;99.90;;;;;;2611009;47;20734;-81
2022/01/15 13:04:32;;;;;;;17.20;11.80;;;6.00;99.90;;;;;;2610722;54;20419;-80
2022/01/15 13:06:59;;;;;;;14.87;12.00;;;6.00;99.90;;;;;;2610537;54;20419;-80
2022/01/15 13:09:44;;;;;;;16.40;11.70;;;6.00;99.90;;;;;;2611599;47;20408;-80
2022/01/15 13:12:11;;;;;;;17.67;12.10;;;6.20;99.90;;;;;;2611423;39;20907;-80
2022/01/15 13:14:39;;;;;;;19.70;12.20;;;6.40;99.90;;;;;;2611398;47;20472;-80
2022/01/15 13:17:18;;;;;;;16.63;12.67;;;6.20;99.90;;;;;;2612245;54;20445;-79
2022/01/15 13:19:45;;;;;;;14.67;11.00;;;5.90;99.90;;;;;;2610119;47;20423;-79
2022/01/15 13:22:11;;;;;;;18.90;11.97;;;5.80;99.90;;;;;;2629377;36;20610;-81
2022/01/15 13:24:37;;;;;;;16.10;12.60;;;6.00;99.90;;;;;;2610910;47;20415;-79
2022/01/15 13:27:04;;;;;;;18.57;12.57;;;6.00;99.90;;;;;;2612402;39;20616;-80